Sonic Adventure (DX): Overall Rankings

Records: Times | Rings | Scores | Races | Bosses | Freestyle
Leaders: Times | Rings | Scores | Races | Bosses | Freestyle | Overall
Rank Order Asc Player Percent Points Date
1 Sonicspeedruner 98.4% 259 08-02-15
2 DarkPolarNight 96.1% 628 08-02-15
3 Gamepro011 94.5% 900 08-02-15
4 Jawzun 93.8% 1014 08-02-15
5 Dashjump 91.6% 1369 08-02-15
6 DarkspinesSonic 90.6% 1526 08-02-15
7 Avento128bits 90.2% 1599 08-02-15
8 ike6252 90.0% 1628 08-02-15
9 F-Man 88.3% 1914 08-02-15
10 HyperSonic7701 85.0% 2454 08-02-15
11 Coolfansonic 83.9% 2641 08-02-15
12 yoshifan 83.4% 2713 08-02-15
13 frankoredstrato 83.0% 2788 08-02-15
14 TheRealShadnic 82.0% 2940 08-02-15
15 francisco 81.9% 2955 08-02-15
16 Marth 81.7% 3002 08-02-15
17 InferSaime 80.3% 3218 08-02-15
18 PfoSonic 79.9% 3285 08-02-15
19 Paragod 79.5% 3359 08-02-15
20 THC98 78.3% 3550 08-02-15
21 Stefan 76.2% 3899 08-02-15
22 RPGnutter 74.0% 4265 08-02-15
23 bertin 73.9% 4282 08-02-15
24 sonicam 71.6% 4647 08-02-15
25 Combo 65.6% 5637 08-02-15
26 drminus 64.7% 5779 08-02-15
27 SkyLights 64.4% 5840 08-02-15
28 xXMegaManXx 63.6% 5970 08-02-15
29 Diamond 62.7% 6104 08-02-15
30 OmegaDJ 60.3% 6511 08-02-15
31 GerbilSoft 60.2% 6515 08-02-15
32 Auriman1 60.2% 6528 08-02-15
33 magnum12 59.3% 6677 08-02-15
34 Dawid8404 59.1% 6700 08-02-15
35 Thorn 57.2% 7018 08-02-15
36 P1 Pause 56.9% 7058 08-02-15
37 mike89 55.8% 7249 08-02-15
38 chainchumper 54.1% 7524 08-02-15
39 Dave Cramer 53.9% 7560 08-02-15
40 Groudon199 53.9% 7563 08-02-15
41 Parax 53.3% 7661 08-02-15
42 Shadow Jacky 52.7% 7755 08-02-15
43 Psymar 47.5% 8598 08-02-15
44 Chao_Fan 45.8% 8889 08-02-15
45 Arch 45.5% 8936 08-02-15
46 mauserman 45.4% 8958 08-02-15
47 Quartz 44.6% 9077 08-02-15
48 teamblackarms 43.6% 9241 08-02-15
49 Psyknux 43.5% 9255 08-02-15
50 James_Bertolli 42.9% 9365 08-02-15
51 NintenDan 42.4% 9447 08-02-15
52 Webber3000 41.8% 9547 08-02-15
53 Fr3nZy 41.7% 9564 08-02-15
53 Turbos 41.7% 9564 08-02-15
55 Ring Rush 41.6% 9568 08-02-15
56 Cream147 41.3% 9620 08-02-15
57 videogamemaster777 41.2% 9645 08-02-15
58 Siavash Tazari 40.9% 9691 08-02-15
59 buddychaos0415 40.5% 9751 08-02-15
60 SadisticMystic 39.9% 9852 08-02-15
61 eggFL 39.0% 10006 08-02-15
62 Redd 38.7% 10047 08-02-15
63 SB737 37.4% 10267 08-02-15
64 supersonicfan 36.2% 10457 08-02-15
65 FuzZerd 35.2% 10618 08-02-15
66 elecmouse101 34.4% 10747 08-02-15
67 supersonic465 34.3% 10776 08-02-15
68 Austinf 33.6% 10878 08-02-15
69 metanightmare22 32.9% 11008 08-02-15
70 Aitamen 32.8% 11020 08-02-15
71 dabestgamer 32.6% 11056 08-02-15
72 MiStEr_ShAoLiN 32.5% 11059 08-02-15
73 Cyan Ryan 32.5% 11068 08-02-15
74 itsPersonnal 31.7% 11191 08-02-15
75 Cybrax 31.0% 11307 08-02-15
76 Andrea Ritsu 30.6% 11374 08-02-15
77 danieldude 30.4% 11405 08-02-15
78 SilvertheAlmighty 30.4% 11408 08-02-15
79 VMU Player Banned 28.8% 11668 08-02-15
80 Omega Rafael Santos 28.5% 11725 08-02-15
81 Staf 28.1% 11792 08-02-15
82 The T 27.8% 11832 08-02-15
83 EngiNerd 27.5% 11892 08-02-15
84 lordmetalsonic 26.8% 11999 08-02-15
85 Hipertails12 26.7% 12012 08-02-15
86 GreatStar 26.3% 12091 08-02-15
87 welldooder64 26.2% 12096 08-02-15
88 Sondow 26.1% 12122 08-02-15
89 Mastakirby 25.8% 12158 08-02-15
90 The Great Lord Mick 25.8% 12159 08-02-15
91 LinksDarkArrows 25.6% 12192 08-02-15
92 Nimrod 25.5% 12207 08-02-15
93 Skylace 24.8% 12333 08-02-15
94 Rolken 23.3% 12582 08-02-15
95 Xia 21.7% 12831 08-02-15
96 a_moustache 21.7% 12841 08-02-15
97 Kogen Player Banned 21.6% 12858 08-02-15
98 Spinballwizard 21.5% 12872 08-02-15
99 Don 21.3% 12897 08-02-15
100 Miles9999 21.2% 12925 08-02-15
101 Cutiefox 21.1% 12932 08-02-15
102 Game_Complete 21.1% 12940 08-02-15
103 f0rever_zer0 21.1% 12942 08-02-15
104 andres430 20.3% 13063 08-02-15
105 Cruizer 20.2% 13077 08-02-15
106 iSonicKid2K 20.0% 13124 08-02-15
107 SADXTryHard 19.8% 13153 08-02-15
108 GarnetPrincess 19.3% 13234 08-02-15
109 AxlThunder 18.7% 13327 08-02-15
110 knuckles_sonic8 18.7% 13331 08-02-15
111 Team_Yoshi 18.2% 13414 08-02-15
112 KinkyCadence 18.0% 13439 08-02-15
113 The Knuckles Chao 17.9% 13462 08-02-15
114 Termon 17.7% 13487 08-02-15
115 FoxBoy 17.6% 13503 08-02-15
116 LittleBigness 17.6% 13517 08-02-15
117 SonicWinDX 17.4% 13542 08-02-15
118 Sonic Singularity 15.5% 13856 08-02-15
119 Pokemonmaster888 15.5% 13861 08-02-15
120 Drakodan 14.4% 14034 08-02-15
121 BigAL49 14.4% 14038 08-02-15
122 SilverSonic 14.3% 14054 08-02-15
123 MPit08 14.1% 14087 08-02-15
123 WeegeeZV 14.1% 14087 08-02-15
125 Mo Player Banned 14.0% 14098 08-02-15
126 Cod4Scopes 13.4% 14197 08-02-15
126 Jerzia 13.4% 14197 08-02-15
128 HyperSonic64 13.2% 14232 08-02-15
129 booo95 13.1% 14250 08-02-15
130 Chawkk 13.0% 14260 08-02-15
131 paulie9990 13.0% 14269 08-02-15
132 Hunters13 12.9% 14276 08-02-15
133 SuperSonic101 12.9% 14278 08-02-15
134 Maxinfamily 12.7% 14321 08-02-15
135 Kanimayo_Jp 12.5% 14354 08-02-15
136 PsyBorg 12.4% 14359 08-02-15
137 Flying Fox 12.4% 14363 08-02-15
138 BrokenArthritis 12.3% 14382 08-02-15
139 LilZero 12.2% 14393 08-02-15
140 Therio 11.7% 14476 08-02-15
141 sonicspeed 11.6% 14503 08-02-15
142 douglas 11.5% 14520 08-02-15
143 Matt_TY 11.2% 14568 08-02-15
144 joecoolgames 10.5% 14669 08-02-15
145 Cooljay 10.5% 14678 08-02-15
146 SeaWolf 10.5% 14683 08-02-15
147 TFEC Headshot 9.9% 14775 08-02-15
148 welshmoose05 9.8% 14787 08-02-15
149 crazy1993 9.6% 14828 08-02-15
150 OddCook 9.5% 14833 08-02-15
151 Mcshuggets 9.5% 14839 08-02-15
152 videogamer1014 9.2% 14884 08-02-15
153 imazor017 9.2% 14886 08-02-15
154 nuckrieg 9.0% 14914 08-02-15
155 niscool 9.0% 14920 08-02-15
156 SonicAD 9.0% 14924 08-02-15
157 SirTobbii 8.8% 14953 08-02-15
158 Shadowthegreat 8.7% 14973 08-02-15
159 superjupi 8.7% 14974 08-02-15
160 SaviourDC 8.4% 15017 08-02-15
161 iarebored 8.4% 15018 08-02-15
162 sonamyfan666 8.3% 15035 08-02-15
163 Werey 8.3% 15043 08-02-15
164 SonicKnuckles 8.2% 15055 08-02-15
165 adf 7.9% 15105 08-02-15
166 ArcticDragon 7.8% 15112 08-02-15
167 Megaman EXE565 7.7% 15143 08-02-15
168 Platformer 7.4% 15184 08-02-15
169 Mariobutch 7.4% 15190 08-02-15
170 FocusSight64 7.3% 15201 08-02-15
171 Swift Hobo 7.2% 15223 08-02-15
172 wheatrich 7.2% 15224 08-02-15
173 timpkmn89 7.2% 15225 08-02-15
174 ethmar 7.1% 15235 08-02-15
175 Rickyman48 7.0% 15245 08-02-15
176 KitsuneYamaro 6.7% 15301 08-02-15
177 Triseena 6.6% 15316 08-02-15
178 CyberShadow 6.5% 15337 08-02-15
179 slade23 6.4% 15356 08-02-15
180 Starlight Sable 6.3% 15357 08-02-15
181 dShadow 6.3% 15365 08-02-15
182 IsisDazs 6.2% 15379 08-02-15
183 BlankTH 6.0% 15417 08-02-15
184 Monkeh 5.8% 15449 08-02-15
185 Richied 5.7% 15470 08-02-15
186 DaDude 5.6% 15481 08-02-15
187 SonicU260 5.6% 15487 08-02-15
188 sonicd5 5.5% 15498 08-02-15
189 Zip 5.4% 15515 08-02-15
190 Kirbymon30 5.1% 15564 08-02-15
191 tal39h 5.1% 15567 08-02-15
192 Drflash55 4.8% 15615 08-02-15
192 soniccoloursunleashed 4.8% 15615 08-02-15
194 Yish 4.7% 15630 08-02-15
195 neaolas 4.6% 15641 08-02-15
196 Bass 4.6% 15647 08-02-15
197 Sonicsuperstar1 4.5% 15655 08-02-15
198 UninspiredUsername 4.5% 15656 08-02-15
199 superiorsonic 4.5% 15660 08-02-15
200 zapp 4.5% 15667 08-02-15
201 gamefreak1292 4.4% 15677 08-02-15
202 Chaos_Overlord 4.1% 15730 08-02-15
203 TakaRikka 4.0% 15747 08-02-15
204 Valfore 3.9% 15755 08-02-15
205 ShinigamiMachine 3.8% 15774 08-02-15
206 Regano1000 3.7% 15792 08-02-15
207 MK 3.6% 15811 08-02-15
208 Ace747 3.5% 15823 08-02-15
209 Illidan 3.2% 15871 08-02-15
210 HHNNBBHHN 3.2% 15878 08-02-15
211 Venick409 3.1% 15884 08-02-15
212 Brian_pso 3.1% 15893 08-02-15
213 Sithwarrior26 3.0% 15902 08-02-15
214 TheChaosEmeraIds 2.9% 15922 08-02-15
215 ingx24 2.9% 15923 08-02-15
216 Nickson98 2.8% 15934 08-02-15
217 SkyBon 2.8% 15935 08-02-15
218 FSSRandomvids 2.8% 15945 08-02-15
219 Fozer 2.7% 15949 08-02-15
220 sonic29887 2.7% 15954 08-02-15
221 Colomb_30 2.7% 15963 08-02-15
222 TheUltraBlur 2.6% 15971 08-02-15
223 1stKirbyever 2.5% 15983 08-02-15
224 Th4tN1nj4Turtl3 2.3% 16015 08-02-15
225 Cort_pso 2.3% 16017 08-02-15
226 Doom-9 2.3% 16022 08-02-15
227 ieatatsonic 2.2% 16035 08-02-15
228 Mariosonic15 2.2% 16036 08-02-15
229 SonataSpinDash 2.2% 16042 08-02-15
230 SuperSonic71087 2.2% 16043 08-02-15
231 MStitomix 2.1% 16050 08-02-15
232 HermitHelmet 2.1% 16059 08-02-15
233 Artie 2.0% 16069 08-02-15
234 Got4n 2.0% 16070 08-02-15
235 Questionguy555 2.0% 16077 08-02-15
236 Jose_15 1.9% 16079 08-02-15
237 djmat 1.8% 16097 08-02-15
238 SuperSonicfan9595 1.8% 16100 08-02-15
239 sonicandamy 1.7% 16113 08-02-15
240 LancexExWx 1.7% 16122 08-02-15
241 Heroes_Hater 1.7% 16126 08-02-15
241 son1cgu1tar 1.7% 16126 08-02-15
243 Paixii 1.6% 16129 08-02-15
244 BallzeH 1.5% 16147 08-02-15
245 Jamixesa 1.5% 16154 08-02-15
245 Mankster101 1.5% 16154 08-02-15
247 BecauseWarAnvil 1.5% 16157 08-02-15
248 Crydio 1.5% 16160 08-02-15
249 Shanekilz 1.4% 16167 08-02-15
250 SpiritDragon1995 1.4% 16168 08-02-15
251 ReuelBrony 1.4% 16173 08-02-15
252 stanski 1.3% 16179 08-02-15
253 MarewBFN 1.3% 16184 08-02-15
254 Sonique Hedgehog 1.3% 16188 08-02-15
255 Blue Infamy 1.2% 16197 08-02-15
256 p0ker 1.2% 16198 08-02-15
257 ErrortheCucco 1.2% 16207 08-02-15
258 Arthas 1.2% 16210 08-02-15
258 Rikum22 1.2% 16210 08-02-15
260 sonic1001 1.1% 16218 08-02-15
261 WingedInsignia 1.1% 16221 08-02-15
262 syco1098 1.1% 16225 08-02-15
263 AJSIV 1.1% 16226 08-02-15
264 Sonic the Hedgehod16 1.0% 16229 08-02-15
265 sonicfan9 1.0% 16232 08-02-15
266 Calfd 1.0% 16237 08-02-15
267 BlackArmsShadow 0.9% 16246 08-02-15
268 themachoman202 0.9% 16250 08-02-15
269 RealProjectMVP1 PSN 0.9% 16252 08-02-15
270 Ben1502 0.9% 16256 08-02-15
271 Greham Adelphis 0.9% 16258 08-02-15
271 shadowblast63 Player Banned 0.9% 16258 08-02-15
273 Fivavoa 0.9% 16259 08-02-15
273 MastaToken 0.9% 16259 08-02-15
275 Mr. Jones 0.8% 16261 08-02-15
276 arcfx1985 0.8% 16263 08-02-15
276 darkstarblaze 0.8% 16263 08-02-15
278 ptorflaxendrosis 0.8% 16264 08-02-15
279 FlandreScarlet9999vr 0.8% 16268 08-02-15
279 Gvozdevik 0.8% 16268 08-02-15
279 Knuckles 0.8% 16268 08-02-15
282 Zeldocto 0.8% 16273 08-02-15
283 KaM Mark MaK 0.7% 16277 08-02-15
284 BeeAwwb 0.7% 16280 08-02-15
285 ShadouZaHejjihoggu 0.7% 16284 08-02-15
286 Sonic62 0.7% 16289 08-02-15
287 darkersupershadic 0.6% 16293 08-02-15
288 Sogeking 0.6% 16294 08-02-15
289 Shadygamerfreak 0.6% 16296 08-02-15
290 dragondragon18 0.6% 16297 08-02-15
291 SonicK100 0.6% 16298 08-02-15
292 Grady219 0.6% 16299 08-02-15
292 Sarger001 0.6% 16299 08-02-15
294 Jawaah 0.6% 16302 08-02-15
295 Antek 0.6% 16308 08-02-15
296 SilverK 0.5% 16309 08-02-15
297 Klaus 0.5% 16310 08-02-15
298 SpinDashMaster 0.5% 16313 08-02-15
299 BioShadow 0.5% 16315 08-02-15
300 Videogamer123 0.5% 16318 08-02-15
301 Badlex727 0.4% 16327 08-02-15
302 oTaiIilLsS 0.4% 16332 08-02-15
303 Egor305 0.4% 16333 08-02-15
304 Mad Andy 0.4% 16334 08-02-15
305 isaihtb11 0.4% 16335 08-02-15
306 OhNoes! 0.4% 16336 08-02-15
307 S-MS32X-S 0.4% 16338 08-02-15
307 zaktu40 0.4% 16338 08-02-15
309 gaara1234 0.4% 16341 08-02-15
310 gamed00d 0.3% 16343 08-02-15
311 Mister_Slick 0.3% 16351 08-02-15
312 Sonic06Fan 0.3% 16353 08-02-15
313 Rush Hero 0.3% 16355 08-02-15
314 Iwannabelink 0.2% 16359 08-02-15
314 SonicMega167 0.2% 16359 08-02-15
316 sonknuck23 0.2% 16364 08-02-15
317 DanielTheFalcon 0.2% 16369 08-02-15
317 gamer1245 0.2% 16369 08-02-15
319 Burningskull123 0.1% 16378 08-02-15
320 Sonicontherun 0.1% 16387 08-02-15
321 Lil_Dude 0.0% 16391 08-02-15
322 antiwwe 0.0% 16393 08-02-15
323 Cbwade15 0.0% 16397 08-02-15
323 Genuine Hedgehog 0.0% 16397 08-02-15
325 Tyrouble 0.0% 16400 08-02-15
326 MegabombBlade 0.0% 16407 08-02-15
326 neji_hyuuga 0.0% 16407 08-02-15
326 Over 0.0% 16407 08-02-15
326 sdj6707 Player Banned 0.0% 16407 08-02-15
326 Tran Sonic Fan Player Banned 0.0% 16407 08-02-15

This page is using the New Data Table System. [FUTURE]

Game ID: 3 | Category ID: 10
Hits: 64,159 | Hits This Month: 12 | DB Calls: 21 | Mem Usage: 5.45 MB | Time: 0.21s | Printable

The Sonic Center v3.9
Copyright 2003-2011 by The Sonic Center Team.